Impacts METAR Board
IDs:

KCLT - Charlotte/Douglas In, NC, US

Updated at: 1000 UTC 30 Oct 2020
Potential Impact None Slight Moderate High
Time 29/22Z 29/23Z 30/00Z 30/01Z 30/02Z 30/03Z 30/04Z 30/05Z 30/06Z 30/07Z 30/08Z 30/09Z 30/10Z
Temp80 77 75 75 70 70 70 67 65 64 63 61 58
Dewpt67 68 68 69 68 67 67 59 54 54 52 50 52
Altim29.58 29.58 29.57 29.55 29.54 29.54 29.56 29.57 29.61 29.64 29.69 29.70 29.75
VIS10 10 10 4 6 8 10 10 10 10 10 10 10
CIG250 -- 250 70 23 30 60 -- -- 90 -- -- --
CoverBKNSCTBKNBKNOVCOVCBKNSCTFEWBKNFEWCLRCLR
FltCatVFRVFRVFRMVFRMVFRMVFRVFRVFRVFRVFRVFRVFRVFR
WX-------RA-RA BR----------------
WDir210200190190200210200220250240300270280
WSpd9 7 7 11 7 9 7 8 10 5 10 5 3
WGst17 -- -- -- -- -- -- -- -- -- 15 -- --
Raw hourly METARs
KCLT 292152Z 21009G17KT 10SM SCT040 SCT055 BKN250 27/19 A2958 RMK AO2 SLP006 T02670194
KCLT 292252Z 20007KT 10SM FEW038 FEW055 SCT250 25/20 A2958 RMK AO2 SLP007 T02500200
KCLT 292352Z 19007KT 10SM SCT038 SCT055 BKN250 24/20 A2957 RMK AO2 SLP005 T02390200 10283 20239 58002
KCLT 300052Z 19011KT 4SM R18C/4500VP6000FT -RA SCT041 BKN070 BKN250 24/21 A2955 RMK AO2 RAB52 SLP996 P0000 T02390206
KCLT 300152Z 20007KT 6SM -RA BR SCT014 BKN023 OVC080 21/20 A2954 RMK AO2 PK WND 25032/0120 WSHFT 0115 SLP994 P0134 T02110200
KCLT 300252Z 21009KT 8SM SCT011 BKN030 OVC065 21/19 A2954 RMK AO2 RAE13B31E44 SLP995 P0001 60135 T02110194 55011
KCLT 300352Z 20007KT 10SM FEW030 BKN060 21/19 A2956 RMK AO2 SLP001 T02110194
KCLT 300452Z 22008KT 10SM SCT065 19/15 A2957 RMK AO2 SLP005 T01940150 402830194
KCLT 300552Z 25010KT 10SM FEW065 18/12 A2961 RMK AO2 SLP018 60135 T01830122 10244 20183 53023
KCLT 300652Z 24005KT 10SM SCT075 BKN090 18/12 A2964 RMK AO2 SLP028 T01780122
KCLT 300752Z 30010G15KT 10SM FEW090 17/11 A2969 RMK AO2 SLP045 T01720111
KCLT 300852Z 27005KT 10SM CLR 16/10 A2970 RMK AO2 SLP050 T01610100 51031
KCLT 300952Z 28003KT 10SM CLR 14/11 A2975 RMK AO2 SLP068 T01440111



Page loaded:  10:37 UTC  |   03:37 AM Pacific  |   04:37 AM Mountain  |   05:37 AM Central  |   06:37 AM Eastern

 

ADVISORIES

FORECASTS

FORECASTS

OBSERVATIONS

USER TOOLS

ABOUT US